createdAt,value
2018-07-10T00:00:22.114Z,100.00
2018-07-10T00:02:48.430Z,100.00
2018-07-10T00:05:14.743Z,100.00
2018-07-10T00:07:41.060Z,100.00
2018-07-10T00:10:07.385Z,100.00
2018-07-10T00:12:33.703Z,100.00
2018-07-10T00:15:00.048Z,100.00
2018-07-10T00:17:26.334Z,100.00
2018-07-10T00:19:52.655Z,100.00
2018-07-10T00:22:19.032Z,100.00
2018-07-10T00:24:45.354Z,100.00
2018-07-10T00:27:11.681Z,100.00
2018-07-10T00:29:38.054Z,100.00
2018-07-10T00:32:04.582Z,100.00
2018-07-10T00:34:30.899Z,100.00
2018-07-10T00:36:57.224Z,100.00
2018-07-10T00:39:23.538Z,100.00
2018-07-10T00:41:49.862Z,100.00
2018-07-10T00:44:16.179Z,100.00
2018-07-10T00:46:42.496Z,100.00
2018-07-10T00:49:08.813Z,100.00
2018-07-10T00:51:35.125Z,100.00
2018-07-10T00:54:01.453Z,100.00
2018-07-10T00:56:27.776Z,100.00
2018-07-10T00:58:54.099Z,100.00
2018-07-10T01:01:20.427Z,100.00
2018-07-10T01:03:46.757Z,100.00
2018-07-10T01:06:13.113Z,100.00
2018-07-10T01:08:39.431Z,100.00
2018-07-10T01:11:05.754Z,100.00
2018-07-10T01:13:32.069Z,100.00
2018-07-10T01:15:58.445Z,100.00
2018-07-10T01:18:24.759Z,100.00
2018-07-10T01:20:51.075Z,100.00
2018-07-10T01:23:17.387Z,100.00
2018-07-10T01:25:43.708Z,100.00
2018-07-10T01:28:10.030Z,100.00
2018-07-10T01:30:36.352Z,100.00
2018-07-10T01:33:02.778Z,100.00
2018-07-10T01:35:29.142Z,100.00
2018-07-10T01:37:55.477Z,100.00
2018-07-10T01:40:21.857Z,100.00
2018-07-10T01:42:48.180Z,100.00
2018-07-10T01:45:14.543Z,100.00
2018-07-10T01:47:40.975Z,100.00
2018-07-10T01:50:07.359Z,100.00
2018-07-10T01:52:33.673Z,100.00
2018-07-10T01:55:00.114Z,100.00
2018-07-10T01:57:27.491Z,100.00
2018-07-10T01:59:53.806Z,100.00
2018-07-10T02:02:20.123Z,100.00
2018-07-10T02:04:46.442Z,100.00
2018-07-10T02:07:12.819Z,100.00
2018-07-10T02:09:39.140Z,100.00
2018-07-10T02:12:05.458Z,100.00
2018-07-10T02:14:31.775Z,100.00
2018-07-10T02:16:58.097Z,100.00
2018-07-10T02:19:24.410Z,100.00
2018-07-10T02:21:50.832Z,100.00
2018-07-10T02:24:17.168Z,100.00
2018-07-10T02:26:43.487Z,100.00
2018-07-10T02:29:09.802Z,100.00
2018-07-10T02:31:36.126Z,100.00
2018-07-10T02:34:02.449Z,100.00
2018-07-10T02:36:28.772Z,100.00
2018-07-10T02:38:55.095Z,100.00
2018-07-10T02:41:21.412Z,100.00
2018-07-10T02:43:47.738Z,100.00
2018-07-10T02:46:14.056Z,100.00
2018-07-10T02:48:40.379Z,100.00
2018-07-10T02:51:06.697Z,100.00
2018-07-10T02:53:33.026Z,100.00
2018-07-10T02:55:59.345Z,100.00
2018-07-10T02:58:25.667Z,100.00
2018-07-10T03:00:52.057Z,100.00
2018-07-10T03:03:18.369Z,100.00
2018-07-10T03:05:44.696Z,100.00
2018-07-10T03:08:11.018Z,100.00
2018-07-10T03:10:37.358Z,100.00
2018-07-10T03:13:03.681Z,100.00
2018-07-10T03:15:30.023Z,100.00
2018-07-10T03:17:56.335Z,100.00
2018-07-10T03:20:22.647Z,100.00
2018-07-10T03:22:48.972Z,100.00
2018-07-10T03:25:15.287Z,100.00
2018-07-10T03:27:41.602Z,100.00
2018-07-10T03:30:07.939Z,100.00
2018-07-10T03:32:34.260Z,100.00
2018-07-10T03:35:00.578Z,100.00
2018-07-10T03:37:26.894Z,100.00
2018-07-10T03:39:53.215Z,100.00
2018-07-10T03:42:19.526Z,100.00
2018-07-10T03:44:46.038Z,100.00
2018-07-10T03:47:12.331Z,100.00
2018-07-10T03:49:38.650Z,100.00
2018-07-10T03:52:04.964Z,100.00
2018-07-10T03:54:31.285Z,100.00
2018-07-10T03:56:57.602Z,100.00
2018-07-10T03:59:23.920Z,100.00
2018-07-10T04:01:50.259Z,100.00
2018-07-10T04:04:16.588Z,100.00
2018-07-10T04:06:42.903Z,100.00
2018-07-10T04:09:09.260Z,100.00
2018-07-10T04:11:35.606Z,100.00
2018-07-10T04:14:01.924Z,100.00
2018-07-10T04:16:28.241Z,100.00
2018-07-10T04:18:54.562Z,100.00
2018-07-10T04:21:20.925Z,100.00
2018-07-10T04:23:47.244Z,100.00
2018-07-10T04:26:13.565Z,100.00
2018-07-10T04:28:39.922Z,100.00
2018-07-10T04:31:06.240Z,100.00
2018-07-10T04:33:32.683Z,100.00
2018-07-10T04:35:58.952Z,100.00
2018-07-10T04:38:25.273Z,100.00
2018-07-10T04:40:51.594Z,100.00
2018-07-10T04:43:17.911Z,100.00
2018-07-10T04:45:44.224Z,100.00
2018-07-10T04:48:10.555Z,100.00
2018-07-10T04:50:36.880Z,100.00
2018-07-10T04:53:03.218Z,100.00
2018-07-10T04:55:29.551Z,100.00
2018-07-10T04:57:55.860Z,100.00
2018-07-10T05:00:22.186Z,100.00
2018-07-10T05:02:48.501Z,100.00
2018-07-10T05:05:14.817Z,100.00
2018-07-10T05:07:41.164Z,100.00
2018-07-10T05:10:07.445Z,100.00
2018-07-10T05:12:33.762Z,100.00
2018-07-10T05:15:00.125Z,100.00
2018-07-10T05:17:26.449Z,100.00
2018-07-10T05:19:52.778Z,100.00
2018-07-10T05:22:19.091Z,100.00
2018-07-10T05:24:45.412Z,100.00
2018-07-10T05:27:11.757Z,100.00
2018-07-10T05:29:38.074Z,100.00
2018-07-10T05:32:04.423Z,99.04
2018-07-10T05:34:30.733Z,97.98
2018-07-10T05:36:57.050Z,98.05
2018-07-10T05:39:23.364Z,97.74
2018-07-10T05:41:49.737Z,97.04
2018-07-10T05:44:16.066Z,95.38
2018-07-10T05:46:42.384Z,92.81
2018-07-10T05:49:08.710Z,93.18
2018-07-10T05:51:35.022Z,91.89
2018-07-10T05:54:01.339Z,91.30
2018-07-10T05:56:27.701Z,91.43
2018-07-10T05:58:54.013Z,92.16
2018-07-10T06:01:20.321Z,92.83
2018-07-10T06:03:46.637Z,89.78
2018-07-10T06:06:12.954Z,90.54
2018-07-10T06:08:39.268Z,90.72
2018-07-10T06:11:05.587Z,90.50
2018-07-10T06:13:31.897Z,89.94
2018-07-10T06:15:58.219Z,89.64
2018-07-10T06:18:24.534Z,89.03
2018-07-10T06:20:50.861Z,87.86
2018-07-10T06:23:17.174Z,87.26
2018-07-10T06:25:43.486Z,87.66
2018-07-10T06:28:09.851Z,87.51
2018-07-10T06:30:36.160Z,88.31
2018-07-10T06:33:02.477Z,88.85
2018-07-10T06:35:28.836Z,88.46
2018-07-10T06:37:55.156Z,88.02
2018-07-10T06:40:21.477Z,86.70
2018-07-10T06:42:47.792Z,86.96
2018-07-10T06:45:14.116Z,86.39
2018-07-10T06:47:40.431Z,86.15
2018-07-10T06:50:06.773Z,85.26
2018-07-10T06:52:33.183Z,85.14
2018-07-10T06:54:59.417Z,84.73
2018-07-10T06:57:25.727Z,83.84
2018-07-10T06:59:52.041Z,83.81
2018-07-10T07:02:18.358Z,82.34
2018-07-10T07:04:44.675Z,82.77
2018-07-10T07:07:10.990Z,83.37
2018-07-10T07:09:37.312Z,82.73
2018-07-10T07:12:03.616Z,80.80
2018-07-10T07:14:29.936Z,80.67
2018-07-10T07:16:56.262Z,78.86
2018-07-10T07:19:22.614Z,79.08
2018-07-10T07:21:48.923Z,78.24
2018-07-10T07:24:15.242Z,79.39
2018-07-10T07:26:41.556Z,77.93
2018-07-10T07:29:07.901Z,77.16
2018-07-10T07:31:34.221Z,75.76
2018-07-10T07:34:00.565Z,75.94
2018-07-10T07:36:26.880Z,74.48
2018-07-10T07:38:53.194Z,77.09
2018-07-10T07:41:19.515Z,77.29
2018-07-10T07:43:45.877Z,76.94
2018-07-10T07:46:12.175Z,75.17
2018-07-10T07:48:38.536Z,75.22
2018-07-10T07:51:04.886Z,74.69
2018-07-10T07:53:31.204Z,74.03
2018-07-10T07:55:57.557Z,74.08
2018-07-10T07:58:23.883Z,74.33
2018-07-10T08:00:50.195Z,69.60
2018-07-10T08:03:16.567Z,66.41
2018-07-10T08:05:42.901Z,62.45
2018-07-10T08:08:09.197Z,60.12
2018-07-10T08:10:35.519Z,63.48
2018-07-10T08:13:01.995Z,65.15
2018-07-10T08:15:28.246Z,68.44
2018-07-10T08:17:54.632Z,67.85
2018-07-10T08:20:20.992Z,68.29
2018-07-10T08:22:47.347Z,68.01
2018-07-10T08:25:13.662Z,68.14
2018-07-10T08:27:40.054Z,68.57
2018-07-10T08:30:06.338Z,69.09
2018-07-10T08:32:32.671Z,68.47
2018-07-10T08:34:59.016Z,68.28
2018-07-10T08:37:25.327Z,66.87
2018-07-10T08:39:51.708Z,67.30
2018-07-10T08:42:18.025Z,67.08
2018-07-10T08:44:44.348Z,67.98
2018-07-10T08:47:10.670Z,66.36
2018-07-10T08:49:37.016Z,65.59
2018-07-10T08:52:03.353Z,62.51
2018-07-10T08:54:29.757Z,56.59
2018-07-10T08:56:56.095Z,53.87
2018-07-10T08:59:22.414Z,57.41
2018-07-10T09:01:48.755Z,55.80
2018-07-10T09:04:15.070Z,55.52
2018-07-10T09:06:41.417Z,52.30
2018-07-10T09:09:07.761Z,55.26
2018-07-10T09:11:34.147Z,50.88
2018-07-10T09:14:00.560Z,50.63
2018-07-10T09:16:26.820Z,49.82
2018-07-10T09:18:53.168Z,53.06
2018-07-10T09:21:19.483Z,58.47
2018-07-10T09:23:45.849Z,61.17
2018-07-10T09:26:12.201Z,63.83
2018-07-10T09:28:38.518Z,64.26
2018-07-10T09:31:04.833Z,65.28
2018-07-10T09:33:31.191Z,64.33
2018-07-10T09:35:57.487Z,62.37
2018-07-10T09:38:23.850Z,62.40
2018-07-10T09:40:50.177Z,58.91
2018-07-10T09:43:16.484Z,57.42
2018-07-10T09:45:42.832Z,55.71
2018-07-10T09:48:09.159Z,57.24
2018-07-10T09:50:35.503Z,58.54
2018-07-10T09:53:01.861Z,58.44
2018-07-10T09:55:28.180Z,56.83
2018-07-10T09:57:54.523Z,53.80
2018-07-10T10:00:20.849Z,51.93
2018-07-10T10:02:47.191Z,50.12
2018-07-10T10:05:13.553Z,49.24
2018-07-10T10:07:39.899Z,48.36
2018-07-10T10:10:06.215Z,49.15
2018-07-10T10:12:32.563Z,48.87
2018-07-10T10:14:58.875Z,51.41
2018-07-10T10:17:25.227Z,54.63
2018-07-10T10:19:51.615Z,56.50
2018-07-10T10:22:17.956Z,57.57
2018-07-10T10:24:44.275Z,58.33
2018-07-10T10:27:10.664Z,58.47
2018-07-10T10:29:37.007Z,57.90
2018-07-10T10:32:03.364Z,57.08
2018-07-10T10:34:29.705Z,55.65
2018-07-10T10:36:56.024Z,57.48
2018-07-10T10:39:22.366Z,59.55
2018-07-10T10:41:48.713Z,60.57
2018-07-10T10:44:15.035Z,59.28
2018-07-10T10:46:41.346Z,57.15
2018-07-10T10:49:07.667Z,54.33
2018-07-10T10:51:34.013Z,50.93
2018-07-10T10:54:00.328Z,51.20
2018-07-10T10:56:26.652Z,50.37
2018-07-10T10:58:52.996Z,52.91
2018-07-10T11:01:19.340Z,54.54
2018-07-10T11:03:45.665Z,57.41
2018-07-10T11:06:12.042Z,58.90
2018-07-10T11:08:38.385Z,59.61
2018-07-10T11:11:04.708Z,59.36
2018-07-10T11:13:31.031Z,59.31
2018-07-10T11:15:57.371Z,59.47
2018-07-10T11:18:23.691Z,58.79
2018-07-10T11:20:50.036Z,55.40
2018-07-10T11:23:16.388Z,51.80
2018-07-10T11:25:42.729Z,52.50
2018-07-10T11:28:09.048Z,53.06
2018-07-10T11:30:35.454Z,53.30
2018-07-10T11:33:01.756Z,54.16
2018-07-10T11:35:28.083Z,54.39
2018-07-10T11:37:54.409Z,53.86
2018-07-10T11:40:20.751Z,51.19
2018-07-10T11:42:47.096Z,50.75
2018-07-10T11:45:13.408Z,51.95
2018-07-10T11:47:39.767Z,51.28
2018-07-10T11:50:06.147Z,50.79
2018-07-10T11:52:32.492Z,52.61
2018-07-10T11:54:58.809Z,55.17
2018-07-10T11:57:25.155Z,57.06
2018-07-10T11:59:51.480Z,57.61
2018-07-10T12:02:17.803Z,58.28
2018-07-10T12:04:44.145Z,58.95
2018-07-10T12:07:10.493Z,59.62
2018-07-10T12:09:36.839Z,59.65
2018-07-10T12:12:03.184Z,59.66
2018-07-10T12:14:29.547Z,59.10
2018-07-10T12:16:55.891Z,59.96
2018-07-10T12:19:22.219Z,59.72
2018-07-10T12:21:48.534Z,59.26
2018-07-10T12:24:14.856Z,59.22
2018-07-10T12:26:41.227Z,59.13
2018-07-10T12:29:07.544Z,57.57
2018-07-10T12:31:33.863Z,57.05
2018-07-10T12:34:00.184Z,57.80
2018-07-10T12:36:26.536Z,59.03
2018-07-10T12:38:52.832Z,59.29
2018-07-10T12:41:19.142Z,58.65
2018-07-10T12:43:45.496Z,58.81
2018-07-10T12:46:11.813Z,57.25
2018-07-10T12:48:38.134Z,57.44
2018-07-10T12:51:04.485Z,58.13
2018-07-10T12:53:30.815Z,56.83
2018-07-10T12:55:57.195Z,58.25
2018-07-10T12:58:23.541Z,57.77
2018-07-10T13:00:49.860Z,58.22
2018-07-10T13:03:16.189Z,58.23
2018-07-10T13:05:42.498Z,57.17
2018-07-10T13:08:08.816Z,55.24
2018-07-10T13:10:35.163Z,55.03
2018-07-10T13:13:01.504Z,54.86
2018-07-10T13:15:27.852Z,55.42
2018-07-10T13:17:54.239Z,55.76
2018-07-10T13:20:20.517Z,58.00
2018-07-10T13:22:46.851Z,58.11
2018-07-10T13:25:13.165Z,57.65
2018-07-10T13:27:39.528Z,56.92
2018-07-10T13:30:05.836Z,55.65
2018-07-10T13:32:32.233Z,54.05
2018-07-10T13:34:58.549Z,52.08
2018-07-10T13:37:24.880Z,50.59
2018-07-10T13:39:51.196Z,47.56
2018-07-10T13:42:17.550Z,47.39
2018-07-10T13:44:43.899Z,49.11
2018-07-10T13:47:10.181Z,55.21
2018-07-10T13:49:36.499Z,57.05
2018-07-10T13:52:02.805Z,57.77
2018-07-10T13:54:29.116Z,57.65
2018-07-10T13:56:55.448Z,58.37
2018-07-10T13:59:21.755Z,57.94
2018-07-10T14:01:48.073Z,57.42
2018-07-10T14:04:14.390Z,57.49
2018-07-10T14:06:40.702Z,58.15
2018-07-10T14:09:07.023Z,58.92
2018-07-10T14:11:33.343Z,59.65
2018-07-10T14:13:59.651Z,59.57
2018-07-10T14:16:25.977Z,60.55
2018-07-10T14:18:52.294Z,61.03
2018-07-10T14:21:18.610Z,58.78
2018-07-10T14:23:44.931Z,59.62
2018-07-10T14:26:11.243Z,59.20
2018-07-10T14:28:37.568Z,59.82
2018-07-10T14:31:03.925Z,59.67
2018-07-10T14:33:30.213Z,60.53
2018-07-10T14:35:56.534Z,60.27
2018-07-10T14:38:22.855Z,60.72
2018-07-10T14:40:49.156Z,61.37
2018-07-10T14:43:15.472Z,61.66
2018-07-10T14:45:41.781Z,62.24
2018-07-10T14:48:08.096Z,63.58
2018-07-10T14:50:34.418Z,63.44
2018-07-10T14:53:00.806Z,63.49
2018-07-10T14:55:27.095Z,63.13
2018-07-10T14:57:53.492Z,63.44
2018-07-10T15:00:19.843Z,63.54
2018-07-10T15:02:46.148Z,63.30
2018-07-10T15:05:12.468Z,62.90
2018-07-10T15:07:38.790Z,62.55
2018-07-10T15:10:05.113Z,60.85
2018-07-10T15:12:31.433Z,61.47
2018-07-10T15:14:58.072Z,62.46
2018-07-10T15:17:24.092Z,62.26
2018-07-10T15:19:50.434Z,61.95
2018-07-10T15:22:16.746Z,62.19
2018-07-10T15:24:43.060Z,60.97
2018-07-10T15:27:09.371Z,61.77
2018-07-10T15:29:35.688Z,61.54
2018-07-10T15:32:02.000Z,62.29
2018-07-10T15:34:28.307Z,62.64
2018-07-10T15:36:54.619Z,62.75
2018-07-10T15:39:20.937Z,62.32
2018-07-10T15:41:47.264Z,63.03
2018-07-10T15:44:13.579Z,62.86
2018-07-10T15:46:39.932Z,62.28
2018-07-10T15:49:06.219Z,62.26
2018-07-10T15:51:32.527Z,62.68
2018-07-10T15:53:58.841Z,62.48
2018-07-10T15:56:25.155Z,63.09
2018-07-10T15:58:51.529Z,63.84
2018-07-10T16:01:17.904Z,64.23
2018-07-10T16:03:44.230Z,64.86
2018-07-10T16:06:10.609Z,64.96
2018-07-10T16:08:36.852Z,65.76
2018-07-10T16:11:03.163Z,65.98
2018-07-10T16:13:29.477Z,66.25
2018-07-10T16:15:55.795Z,66.17
2018-07-10T16:18:22.118Z,66.30
2018-07-10T16:20:48.429Z,66.08
2018-07-10T16:23:14.734Z,66.04
2018-07-10T16:25:41.117Z,65.94
2018-07-10T16:28:07.368Z,66.12
2018-07-10T16:30:33.683Z,66.91
2018-07-10T16:33:00.014Z,66.98
2018-07-10T16:35:26.329Z,66.18
2018-07-10T16:37:52.640Z,66.58
2018-07-10T16:40:18.958Z,66.47
2018-07-10T16:42:45.288Z,66.73
2018-07-10T16:45:11.603Z,66.98
2018-07-10T16:47:37.955Z,66.59
2018-07-10T16:50:04.275Z,66.72
2018-07-10T16:52:30.583Z,67.24
2018-07-10T16:54:56.897Z,67.30
2018-07-10T16:57:23.258Z,66.96
2018-07-10T16:59:49.528Z,67.18
2018-07-10T17:02:15.857Z,67.58
2018-07-10T17:04:42.171Z,67.76
2018-07-10T17:07:08.482Z,67.76
2018-07-10T17:09:34.811Z,67.89
2018-07-10T17:12:01.115Z,67.94
2018-07-10T17:14:27.436Z,68.05
2018-07-10T17:16:53.746Z,68.27
2018-07-10T17:19:20.092Z,68.74
2018-07-10T17:21:46.396Z,68.62
2018-07-10T17:24:12.707Z,68.83
2018-07-10T17:26:42.016Z,68.77
2018-07-10T17:29:05.718Z,69.27
2018-07-10T17:31:34.024Z,69.36
2018-07-10T17:33:59.088Z,69.97
2018-07-10T17:36:25.264Z,70.47
2018-07-10T17:38:51.584Z,70.77
2018-07-10T17:41:17.900Z,71.00
2018-07-10T17:43:44.215Z,71.19
2018-07-10T17:46:10.530Z,71.58
2018-07-10T17:48:36.844Z,72.03
2018-07-10T17:51:03.162Z,72.21
2018-07-10T17:53:29.472Z,72.29
2018-07-10T17:55:55.797Z,72.58
2018-07-10T17:58:22.125Z,72.63
2018-07-10T18:00:48.452Z,72.83
2018-07-10T18:03:14.759Z,72.80
2018-07-10T18:05:41.074Z,72.76
2018-07-10T18:08:07.388Z,72.82
2018-07-10T18:10:33.700Z,72.98
2018-07-10T18:13:00.014Z,73.14
2018-07-10T18:15:26.324Z,73.29
2018-07-10T18:17:52.645Z,73.28
2018-07-10T18:20:18.958Z,73.41
2018-07-10T18:22:45.328Z,73.40
2018-07-10T18:25:12.199Z,73.56
2018-07-10T18:27:38.561Z,73.92
2018-07-10T18:30:05.239Z,73.79
2018-07-10T18:32:32.170Z,74.27
2018-07-10T18:34:58.827Z,73.95
2018-07-10T18:37:25.157Z,74.22
2018-07-10T18:39:52.676Z,74.52
2018-07-10T18:42:19.194Z,74.50
2018-07-10T18:44:45.409Z,74.69
2018-07-10T18:47:11.681Z,74.61
2018-07-10T18:49:38.004Z,74.50
2018-07-10T18:52:04.325Z,74.38
2018-07-10T18:54:30.631Z,74.79
2018-07-10T18:56:56.951Z,74.91
2018-07-10T18:59:23.260Z,75.08
2018-07-10T19:01:49.579Z,75.14
2018-07-10T19:04:15.898Z,75.29
2018-07-10T19:06:42.213Z,75.65
2018-07-10T19:09:08.529Z,75.88
2018-07-10T19:11:34.844Z,76.08
2018-07-10T19:14:01.160Z,76.08
2018-07-10T19:16:27.485Z,75.58
2018-07-10T19:18:53.820Z,75.98
2018-07-10T19:21:20.153Z,76.08
2018-07-10T19:23:46.504Z,76.29
2018-07-10T19:26:12.824Z,76.44
2018-07-10T19:28:39.149Z,76.75
2018-07-10T19:31:05.479Z,76.91
2018-07-10T19:33:31.787Z,76.82
2018-07-10T19:35:58.135Z,76.78
2018-07-10T19:38:24.458Z,76.85
2018-07-10T19:40:50.786Z,76.89
2018-07-10T19:43:17.124Z,77.06
2018-07-10T19:45:43.451Z,76.87
2018-07-10T19:48:09.774Z,77.29
2018-07-10T19:50:36.168Z,76.88
2018-07-10T19:53:02.476Z,76.56
2018-07-10T19:55:28.803Z,76.72
2018-07-10T19:57:55.129Z,76.46
2018-07-10T20:00:21.452Z,76.79
2018-07-10T20:02:47.787Z,77.02
2018-07-10T20:05:14.101Z,77.12
2018-07-10T20:07:40.422Z,77.01
2018-07-10T20:10:06.744Z,76.91
2018-07-10T20:12:33.095Z,77.20
2018-07-10T20:14:59.457Z,77.18
2018-07-10T20:17:25.788Z,77.17
2018-07-10T20:19:52.092Z,77.11
2018-07-10T20:22:18.456Z,77.22
2018-07-10T20:24:44.776Z,77.31
2018-07-10T20:27:11.140Z,77.39
2018-07-10T20:29:37.459Z,77.59
2018-07-10T20:32:03.797Z,77.76
2018-07-10T20:34:30.118Z,77.98
2018-07-10T20:36:56.432Z,78.09
2018-07-10T20:39:22.757Z,78.08
2018-07-10T20:41:49.090Z,78.22
2018-07-10T20:44:15.414Z,78.56
2018-07-10T20:46:41.733Z,78.91
2018-07-10T20:49:08.056Z,79.64
2018-07-10T20:51:34.372Z,79.90
2018-07-10T20:54:00.689Z,80.17
2018-07-10T20:56:27.053Z,80.08
2018-07-10T20:58:53.435Z,80.25
2018-07-10T21:01:19.759Z,80.12
2018-07-10T21:03:46.111Z,79.96
2018-07-10T21:06:12.397Z,80.00
2018-07-10T21:08:38.712Z,79.88
2018-07-10T21:11:05.029Z,80.47
2018-07-10T21:13:31.360Z,81.00
2018-07-10T21:15:57.724Z,81.47
2018-07-10T21:18:29.067Z,82.37
2018-07-10T21:23:40.860Z,83.97
2018-07-10T21:26:07.178Z,84.62
2018-07-10T21:28:33.498Z,85.15
2018-07-10T21:30:59.823Z,85.49
2018-07-10T21:33:26.146Z,85.76
2018-07-10T21:35:52.457Z,86.03
2018-07-10T21:38:18.773Z,85.69
2018-07-10T21:40:45.084Z,85.47
2018-07-10T21:43:11.393Z,85.71
2018-07-10T21:45:37.722Z,86.52
2018-07-10T21:48:04.040Z,85.85
2018-07-10T21:50:30.349Z,86.12
2018-07-10T21:52:56.700Z,85.75
2018-07-10T21:55:23.010Z,85.01
2018-07-10T21:57:49.317Z,85.94
2018-07-10T22:00:15.628Z,85.91
2018-07-10T22:02:41.994Z,85.92
2018-07-10T22:05:08.304Z,85.46
2018-07-10T22:07:34.627Z,85.67
2018-07-10T22:10:00.968Z,86.22
2018-07-10T22:12:27.312Z,86.65
2018-07-10T22:14:53.659Z,86.87
2018-07-10T22:17:19.999Z,87.04
2018-07-10T22:19:46.397Z,87.39
2018-07-10T22:22:12.737Z,87.69
2018-07-10T22:24:39.077Z,87.78
2018-07-10T22:27:05.434Z,88.27
2018-07-10T22:29:31.781Z,88.36
2018-07-10T22:31:58.143Z,88.93
2018-07-10T22:34:24.455Z,89.16
2018-07-10T22:36:50.773Z,89.21
2018-07-10T22:39:17.171Z,88.86
2018-07-10T22:41:43.493Z,88.85
2018-07-10T22:44:09.807Z,89.31
2018-07-10T22:46:36.120Z,89.98
2018-07-10T22:49:02.452Z,89.89
2018-07-10T22:51:28.796Z,89.88
2018-07-10T22:53:55.072Z,89.63
2018-07-10T22:56:21.385Z,89.59
2018-07-10T22:58:47.722Z,89.61
2018-07-10T23:01:14.018Z,89.68
2018-07-10T23:03:40.328Z,90.19
2018-07-10T23:06:06.645Z,90.70
2018-07-10T23:08:32.958Z,91.03
2018-07-10T23:10:59.271Z,91.30
2018-07-10T23:13:25.584Z,91.50
2018-07-10T23:15:51.962Z,91.72
2018-07-10T23:18:18.284Z,92.03
2018-07-10T23:20:44.589Z,92.23
2018-07-10T23:23:10.911Z,92.59
2018-07-10T23:25:37.267Z,92.76
2018-07-10T23:28:03.589Z,92.77
2018-07-10T23:30:29.910Z,92.62
2018-07-10T23:32:56.242Z,92.56
2018-07-10T23:35:22.560Z,92.71
2018-07-10T23:37:48.873Z,92.70
2018-07-10T23:40:15.188Z,92.74
2018-07-10T23:42:41.512Z,92.99
2018-07-10T23:45:07.836Z,92.88
2018-07-10T23:47:34.150Z,92.76
2018-07-10T23:50:00.470Z,92.68
2018-07-10T23:52:26.790Z,92.71
2018-07-10T23:54:53.103Z,92.74
2018-07-10T23:57:19.435Z,92.97
2018-07-10T23:59:45.755Z,93.09
